Time;durP1;ratioP1;P1;durP2;ratioP2;P2;SDS_P1;SDS_P2;PMS_P1;PMS_P2;Temp;Humidity;BMP_temperature;BMP_pressure;BME280_temperature;BME280_humidity;BME280_pressure;Samples;Min_cycle;Max_cycle;Signal;HPM_P1;HPM_P2
2023/07/04 00:00:13;;;;;;;15.10;3.88;;;;;;;19.80;73.21;93955.25;5064721;28;20319;-81
2023/07/04 00:02:39;;;;;;;5.78;3.22;;;;;;;19.72;73.27;93959.84;5064439;28;20036;-81
2023/07/04 00:05:05;;;;;;;6.60;3.28;;;;;;;19.68;73.70;93953.53;5064514;28;20025;-81
2023/07/04 00:07:31;;;;;;;7.88;3.28;;;;;;;19.64;74.20;93950.81;5064463;28;20070;-81
2023/07/04 00:09:59;;;;;;;7.22;3.63;;;;;;;19.61;74.06;93956.19;5064407;28;20070;-81
2023/07/04 00:12:24;;;;;;;6.20;3.30;;;;;;;19.56;74.33;93951.09;5064253;28;20035;-81
2023/07/04 00:14:50;;;;;;;5.72;3.47;;;;;;;19.53;74.45;93951.84;5064521;28;20021;-81
2023/07/04 00:17:15;;;;;;;5.18;3.30;;;;;;;19.54;74.40;93956.06;5064281;28;20037;-83
2023/07/04 00:19:41;;;;;;;10.18;4.13;;;;;;;19.50;74.84;93949.84;5064331;28;20056;-84
2023/07/04 00:22:10;;;;;;;9.43;4.07;;;;;;;19.53;74.87;93949.13;5064144;28;20033;-85
2023/07/04 00:24:36;;;;;;;10.18;4.28;;;;;;;19.50;74.60;93947.94;5063450;28;20039;-83
2023/07/04 00:27:02;;;;;;;10.10;3.65;;;;;;;19.44;74.79;93950.19;5063207;28;20161;-83
2023/07/04 00:29:28;;;;;;;6.90;3.83;;;;;;;19.30;75.03;93954.63;5062786;28;20082;-83
2023/07/04 00:31:54;;;;;;;5.82;3.35;;;;;;;19.27;74.95;93963.47;5063350;28;20268;-83
2023/07/04 00:34:20;;;;;;;5.95;3.53;;;;;;;19.20;75.04;93954.13;5064137;28;20021;-83
2023/07/04 00:36:46;;;;;;;7.78;3.92;;;;;;;19.24;75.41;93952.25;5063776;28;20020;-85
2023/07/04 00:39:14;;;;;;;7.30;4.40;;;;;;;19.24;75.34;93960.34;5063820;28;20075;-81
2023/07/04 00:41:41;;;;;;;7.28;4.47;;;;;;;19.23;75.63;93948.00;5063500;28;20024;-82
2023/07/04 00:44:20;;;;;;;7.70;4.18;;;;;;;19.24;75.71;93948.75;5063635;28;20048;-82
2023/07/04 00:46:51;;;;;;;5.57;3.83;;;;;;;19.22;75.58;93953.75;5063630;28;20025;-82
2023/07/04 00:49:42;;;;;;;7.47;3.45;;;;;;;19.23;75.76;93949.91;5062294;28;20177;-83
2023/07/04 00:52:18;;;;;;;7.68;3.45;;;;;;;19.15;76.14;93943.63;5063598;28;20036;-83
2023/07/04 00:54:52;;;;;;;8.75;4.32;;;;;;;19.10;76.33;93951.28;5062304;28;20037;-83
2023/07/04 00:57:20;;;;;;;7.88;3.88;;;;;;;19.12;76.42;93944.34;5063586;28;20204;-83
2023/07/04 00:59:48;;;;;;;7.80;3.88;;;;;;;19.09;76.47;93949.69;5063565;28;20021;-83
2023/07/04 01:02:16;;;;;;;7.13;3.50;;;;;;;19.10;76.39;93945.88;5062696;28;20071;-83
2023/07/04 01:04:43;;;;;;;5.47;3.45;;;;;;;19.03;76.69;93949.22;5061794;28;20021;-83
2023/07/04 01:07:21;;;;;;;6.53;3.63;;;;;;;19.03;76.71;93952.72;5062224;28;20024;-82
2023/07/04 01:09:54;;;;;;;6.25;3.78;;;;;;;18.98;76.53;93955.72;5061954;28;20421;-82
2023/07/04 01:12:19;;;;;;;6.30;3.53;;;;;;;18.98;76.66;93946.84;5063345;28;20027;-82
2023/07/04 01:14:48;;;;;;;5.28;3.03;;;;;;;18.93;76.78;93953.34;5063000;28;20219;-82
2023/07/04 01:17:13;;;;;;;8.77;3.78;;;;;;;18.95;76.74;93959.16;5062958;28;20028;-82
2023/07/04 01:19:40;;;;;;;8.75;4.15;;;;;;;18.93;76.68;93961.47;5063311;28;20220;-82
2023/07/04 01:22:34;;;;;;;5.25;3.33;;;;;;;18.92;77.21;93953.72;5062960;28;20033;-83
2023/07/04 01:25:07;;;;;;;6.35;3.80;;;;;;;18.93;77.29;93956.06;5054721;28;20033;-83
2023/07/04 01:27:35;;;;;;;6.20;4.15;;;;;;;18.88;77.28;93950.94;5063038;28;20016;-83
2023/07/04 01:30:04;;;;;;;5.32;3.10;;;;;;;18.86;77.62;93953.22;5062981;28;20016;-83
2023/07/04 01:32:31;;;;;;;6.00;3.70;;;;;;;18.80;77.76;93946.59;5062956;28;20020;-83
2023/07/04 01:35:00;;;;;;;10.25;3.90;;;;;;;18.80;78.07;93944.66;5063047;28;20024;-83
2023/07/04 01:37:29;;;;;;;7.57;4.03;;;;;;;18.79;78.01;93943.09;5061536;28;20311;-81
2023/07/04 01:39:59;;;;;;;8.20;4.25;;;;;;;18.76;77.86;93937.63;5061694;28;20028;-81
2023/07/04 01:42:31;;;;;;;5.78;3.80;;;;;;;18.74;78.08;93948.78;5062665;28;20025;-81
2023/07/04 01:45:07;;;;;;;7.57;3.97;;;;;;;18.76;77.90;93941.09;5061602;28;20092;-81
2023/07/04 01:47:34;;;;;;;4.97;3.38;;;;;;;18.75;77.81;93944.19;5062887;28;20261;-81
2023/07/04 01:50:01;;;;;;;9.20;4.10;;;;;;;18.71;77.99;93946.03;5062638;28;20043;-81
2023/07/04 01:52:27;;;;;;;6.47;4.22;;;;;;;18.66;77.70;93949.81;5062443;28;20045;-81
2023/07/04 01:54:54;;;;;;;5.80;3.90;;;;;;;18.57;78.24;93939.28;5062979;28;20381;-81
2023/07/04 01:57:19;;;;;;;5.35;3.50;;;;;;;18.58;78.44;93948.94;5062976;28;20095;-80
2023/07/04 01:59:45;;;;;;;7.28;3.47;;;;;;;18.58;78.68;93954.34;5062493;28;20025;-81
2023/07/04 02:02:11;;;;;;;11.85;3.90;;;;;;;18.55;78.63;93948.88;5061430;28;20060;-81
2023/07/04 02:04:36;;;;;;;6.60;4.47;;;;;;;18.52;78.69;93946.88;5062440;28;20246;-82
2023/07/04 02:07:05;;;;;;;5.38;3.42;;;;;;;18.57;78.54;93963.56;5062887;28;20226;-82
2023/07/04 02:09:30;;;;;;;6.65;4.07;;;;;;;18.53;78.37;93956.56;5062377;28;20028;-82
2023/07/04 02:11:56;;;;;;;7.95;3.45;;;;;;;18.42;78.76;93959.09;5062502;28;20020;-82
2023/07/04 02:14:21;;;;;;;8.68;3.85;;;;;;;18.41;78.97;93968.31;5063874;28;20036;-82
2023/07/04 02:16:49;;;;;;;12.70;4.55;;;;;;;18.35;79.55;93951.63;5066465;28;20338;-82
2023/07/04 02:19:15;;;;;;;5.60;3.60;;;;;;;18.33;79.06;93955.84;5066591;28;20017;-82
2023/07/04 02:21:40;;;;;;;8.00;3.58;;;;;;;18.33;78.65;93959.31;5066435;28;20097;-82
2023/07/04 02:24:06;;;;;;;5.38;3.63;;;;;;;18.24;78.67;93956.84;5066437;28;20207;-82
2023/07/04 02:26:32;;;;;;;10.07;3.80;;;;;;;18.21;78.34;93957.53;5066426;28;20031;-82
2023/07/04 02:28:59;;;;;;;7.68;4.03;;;;;;;18.17;78.94;93953.25;5065210;28;20193;-83
2023/07/04 02:31:24;;;;;;;6.07;4.10;;;;;;;18.16;78.95;93957.84;5065081;28;20028;-82
2023/07/04 02:33:50;;;;;;;8.57;4.43;;;;;;;18.26;78.20;93956.50;5066275;28;20024;-83
2023/07/04 02:36:16;;;;;;;6.72;3.80;;;;;;;18.24;77.85;93951.44;5066227;28;20379;-82
2023/07/04 02:38:42;;;;;;;5.95;3.67;;;;;;;18.14;78.50;93946.66;5066152;28;20029;-83
2023/07/04 02:41:08;;;;;;;10.25;3.88;;;;;;;18.10;79.62;93958.53;5064767;28;20029;-82
2023/07/04 02:43:35;;;;;;;9.02;4.68;;;;;;;18.12;79.49;93948.16;5066136;28;20020;-82
2023/07/04 02:46:01;;;;;;;5.40;3.80;;;;;;;18.22;79.14;93952.97;5066161;28;20039;-82
2023/07/04 02:48:30;;;;;;;8.25;4.30;;;;;;;18.18;79.53;93952.88;5066014;28;20070;-82
2023/07/04 02:50:55;;;;;;;8.55;4.15;;;;;;;18.14;79.77;93951.28;5065707;28;20124;-82
2023/07/04 02:53:22;;;;;;;8.60;3.85;;;;;;;18.12;79.56;93940.84;5064911;28;20017;-83
2023/07/04 02:55:52;;;;;;;8.43;3.70;;;;;;;18.09;79.62;93955.03;5065917;28;20017;-82
2023/07/04 02:58:18;;;;;;;5.97;3.95;;;;;;;18.10;79.25;93951.19;5064377;28;20471;-82
2023/07/04 03:00:43;;;;;;;9.48;3.75;;;;;;;18.12;79.13;93951.63;5065799;28;20028;-83
2023/07/04 03:03:09;;;;;;;6.82;4.28;;;;;;;18.08;79.34;93955.41;5065454;28;20039;-83
2023/07/04 03:05:36;;;;;;;8.45;4.00;;;;;;;18.07;79.65;93951.91;5065436;28;20025;-83
2023/07/04 03:08:02;;;;;;;9.15;4.30;;;;;;;18.03;79.90;93949.16;5065586;28;20032;-83
2023/07/04 03:10:28;;;;;;;15.18;4.55;;;;;;;18.01;79.78;93956.03;5065642;28;20198;-83
2023/07/04 03:12:54;;;;;;;13.32;4.88;;;;;;;18.04;79.96;93958.03;5065619;28;20013;-82
2023/07/04 03:15:19;;;;;;;11.45;4.18;;;;;;;18.01;79.93;93954.13;5064417;28;20025;-82
2023/07/04 03:17:45;;;;;;;10.75;4.97;;;;;;;17.96;80.51;93953.63;5065549;28;20017;-82
2023/07/04 03:20:12;;;;;;;6.70;4.28;;;;;;;17.96;80.96;93959.03;5064268;28;20050;-82
2023/07/04 03:22:39;;;;;;;8.32;4.40;;;;;;;17.99;80.92;93952.91;5065299;28;20020;-81
2023/07/04 03:25:04;;;;;;;12.20;6.20;;;;;;;18.06;80.15;93958.44;5064115;28;20044;-81
2023/07/04 03:27:30;;;;;;;11.75;4.72;;;;;;;18.04;80.71;93952.63;5064483;28;20017;-81
2023/07/04 03:29:55;;;;;;;9.18;5.03;;;;;;;18.11;80.27;93946.56;5065169;28;20024;-81
2023/07/04 03:32:21;;;;;;;6.03;3.90;;;;;;;18.16;80.94;93951.69;5064022;28;20035;-80
2023/07/04 03:34:47;;;;;;;12.98;4.95;;;;;;;18.18;80.29;93952.13;5065176;28;20215;-80
2023/07/04 03:37:13;;;;;;;9.18;4.18;;;;;;;18.17;80.29;93945.91;5065279;28;20017;-82
2023/07/04 03:39:39;;;;;;;11.15;4.32;;;;;;;18.18;80.13;93955.59;5065003;28;20028;-81
2023/07/04 03:42:05;;;;;;;8.13;4.63;;;;;;;18.25;79.93;93958.38;5064746;28;20084;-81
2023/07/04 03:44:30;;;;;;;9.15;5.13;;;;;;;18.29;79.82;93963.84;5064897;28;20055;-82
2023/07/04 03:46:56;;;;;;;7.13;5.03;;;;;;;18.34;80.22;93963.56;5063737;28;20025;-82
2023/07/04 03:49:21;;;;;;;9.43;4.93;;;;;;;18.31;80.61;93956.19;5064866;28;20031;-82
2023/07/04 03:51:47;;;;;;;7.75;5.53;;;;;;;18.38;80.43;93961.72;5064428;28;20029;-82
2023/07/04 03:54:12;;;;;;;9.02;5.32;;;;;;;18.45;80.26;93961.81;5064781;28;20028;-82
2023/07/04 03:56:40;;;;;;;12.93;5.43;;;;;;;18.54;79.65;93964.28;5064761;28;20070;-82
2023/07/04 03:59:06;;;;;;;8.48;5.38;;;;;;;18.55;80.08;93965.06;5063424;28;20095;-82
2023/07/04 04:01:31;;;;;;;6.97;5.43;;;;;;;18.57;80.56;93971.66;5064938;28;20151;-82
2023/07/04 04:04:08;;;;;;;11.35;5.55;;;;;;;18.54;81.06;93972.41;5063379;28;20149;-82
2023/07/04 04:06:39;;;;;;;10.70;6.43;;;;;;;18.59;81.08;93969.38;5064585;28;20249;-81
2023/07/04 04:09:24;;;;;;;;;;;;;;;;;;;;;
2023/07/04 04:11:52;;;;;;;11.57;7.07;;;;;;;18.69;81.13;93959.13;5064458;28;20283;-81
2023/07/04 04:14:36;;;;;;;13.77;6.40;;;;;;;18.67;81.41;93970.28;5063086;28;20379;-82
2023/07/04 04:17:03;;;;;;;11.85;6.45;;;;;;;18.71;81.27;93968.41;5064325;28;20147;-82
2023/07/04 04:19:29;;;;;;;11.93;6.43;;;;;;;18.70;80.19;93976.88;5063161;28;20028;-81
2023/07/04 04:21:55;;;;;;;17.08;7.28;;;;;;;18.76;79.95;93975.41;5064045;28;20071;-82
2023/07/04 04:24:22;;;;;;;19.75;7.57;;;;;;;18.77;80.14;93977.78;5064325;28;20029;-82
2023/07/04 04:27:11;;;;;;;12.55;7.28;;;;;;;18.68;80.68;93984.56;5064173;28;20078;-82
2023/07/04 04:29:35;;;;;;;12.93;8.13;;;;;;;18.71;81.05;93994.63;5063852;28;20043;-82
2023/07/04 04:32:00;;;;;;;12.80;6.82;;;;;;;18.69;81.08;93980.72;5064123;28;20029;-82
2023/07/04 04:34:26;;;;;;;12.63;6.90;;;;;;;18.74;81.10;93993.91;5064263;28;20376;-82
2023/07/04 04:36:52;;;;;;;8.93;6.32;;;;;;;18.77;80.16;94001.28;5064150;28;20095;-82
2023/07/04 04:39:17;;;;;;;13.30;7.30;;;;;;;18.77;80.55;94001.28;5063994;28;20222;-82
2023/07/04 04:42:14;;;;;;;19.50;7.70;;;;;;;18.75;80.91;93998.19;5063927;28;20080;-82
2023/07/04 04:44:40;;;;;;;12.70;7.43;;;;;;;18.75;81.49;93990.84;5063857;28;20218;-82
2023/07/04 04:47:07;;;;;;;22.17;7.55;;;;;;;18.87;81.31;94008.81;5062655;28;20017;-82
2023/07/04 04:49:33;;;;;;;27.25;8.52;;;;;;;18.93;80.84;94007.38;5063781;28;20100;-82
2023/07/04 04:51:58;;;;;;;11.55;7.88;;;;;;;19.07;80.68;94000.59;5063441;28;20212;-82
2023/07/04 04:54:23;;;;;;;18.33;7.85;;;;;;;19.12;80.01;94000.31;5063735;28;20020;-83
2023/07/04 04:56:51;;;;;;;18.52;8.20;;;;;;;19.09;79.38;94004.53;5063804;28;20027;-83
2023/07/04 04:59:40;;;;;;;13.50;7.95;;;;;;;19.15;79.22;93996.88;5063690;28;20039;-83
2023/07/04 05:02:06;;;;;;;15.75;8.63;;;;;;;19.18;79.30;94006.97;5063517;28;20036;-81
2023/07/04 05:04:33;;;;;;;15.32;8.00;;;;;;;19.18;79.49;94001.56;5062255;28;20025;-81
2023/07/04 05:06:59;;;;;;;19.48;8.25;;;;;;;19.22;79.54;94007.78;5063372;28;20029;-82
2023/07/04 05:09:24;;;;;;;15.57;9.02;;;;;;;19.31;79.46;94013.69;5063328;28;20021;-82
2023/07/04 05:11:50;;;;;;;19.00;7.60;;;;;;;19.32;80.09;94004.47;5063430;28;20017;-81
2023/07/04 05:14:15;;;;;;;15.65;8.02;;;;;;;19.38;79.69;94005.72;5063164;28;20040;-83
2023/07/04 05:16:41;;;;;;;21.77;7.85;;;;;;;19.48;79.65;94003.50;5063297;28;20025;-83
2023/07/04 05:19:06;;;;;;;19.73;8.38;;;;;;;19.59;79.11;94004.44;5063232;28;20055;-82
2023/07/04 05:21:31;;;;;;;18.27;8.60;;;;;;;19.71;78.86;94001.53;5063231;28;20040;-83
2023/07/04 05:23:57;;;;;;;15.93;7.95;;;;;;;19.82;77.55;94010.56;5063360;28;20379;-81
2023/07/04 05:26:25;;;;;;;13.25;7.75;;;;;;;19.98;76.86;93998.75;5061938;28;20054;-80
2023/07/04 05:28:52;;;;;;;22.02;7.90;;;;;;;20.05;75.88;93993.44;5063207;28;20024;-80
2023/07/04 05:31:21;;;;;;;23.80;7.78;;;;;;;20.13;75.99;93994.25;5062863;28;20044;-81
2023/07/04 05:33:47;;;;;;;19.45;8.73;;;;;;;20.18;75.69;94008.25;5063046;28;20223;-78
2023/07/04 05:36:21;;;;;;;19.50;8.50;;;;;;;20.31;76.63;94003.34;5061778;28;20021;-78
2023/07/04 05:38:51;;;;;;;13.52;7.60;;;;;;;20.43;75.83;93997.69;5061624;28;20036;-79
2023/07/04 05:41:19;;;;;;;14.07;6.78;;;;;;;20.63;76.59;94006.41;5062668;28;20373;-77
2023/07/04 05:43:44;;;;;;;19.40;7.25;;;;;;;20.76;74.73;94003.41;5062986;28;20029;-76
2023/07/04 05:46:12;;;;;;;20.27;7.50;;;;;;;20.79;73.67;94002.69;5062754;28;20027;-77
2023/07/04 05:48:38;;;;;;;11.77;7.35;;;;;;;20.92;74.78;94009.34;5062739;28;20025;-77
2023/07/04 05:51:06;;;;;;;20.30;6.90;;;;;;;21.05;74.03;94004.44;5062788;28;20272;-77
2023/07/04 05:53:33;;;;;;;13.13;6.65;;;;;;;21.23;75.22;93999.16;5061822;28;20096;-77
2023/07/04 05:56:13;;;;;;;13.07;5.72;;;;;;;21.34;72.66;94004.63;5062709;28;20028;-77
2023/07/04 05:58:43;;;;;;;9.50;5.70;;;;;;;21.47;72.66;94010.53;5062755;28;20013;-76
2023/07/04 06:01:13;;;;;;;10.50;5.68;;;;;;;21.52;70.48;94002.06;5062440;28;20040;-75
2023/07/04 06:03:39;;;;;;;13.10;5.60;;;;;;;21.63;70.15;93997.44;5062773;28;20235;-76
2023/07/04 06:06:38;;;;;;;10.93;5.57;;;;;;;21.56;69.43;94000.13;5062715;28;20033;-76
2023/07/04 06:09:12;;;;;;;19.90;6.30;;;;;;;21.72;69.64;93997.13;5057128;28;20068;-77
2023/07/04 06:11:43;;;;;;;14.32;5.20;;;;;;;21.83;69.21;93987.84;5062609;28;20017;-78
2023/07/04 06:14:09;;;;;;;15.02;5.15;;;;;;;22.00;67.98;93993.72;5062672;28;20033;-78
2023/07/04 06:16:35;;;;;;;15.88;6.40;;;;;;;22.04;68.56;93992.59;5062619;28;20334;-77
2023/07/04 06:19:00;;;;;;;24.10;5.90;;;;;;;22.07;68.08;93987.56;5062607;28;20096;-79
2023/07/04 06:21:26;;;;;;;16.55;5.93;;;;;;;22.12;67.73;93996.09;5062273;28;20017;-79
2023/07/04 06:23:54;;;;;;;13.63;5.63;;;;;;;22.00;67.03;93991.00;5062408;28;20021;-79
2023/07/04 06:26:20;;;;;;;13.85;5.40;;;;;;;22.17;67.22;93998.44;5062501;28;20035;-79
2023/07/04 06:28:45;;;;;;;13.50;5.60;;;;;;;22.16;67.79;93994.16;5061177;28;20333;-79
2023/07/04 06:31:13;;;;;;;18.40;5.95;;;;;;;22.33;66.60;93997.38;5062497;28;20017;-79
2023/07/04 06:33:39;;;;;;;24.88;6.13;;;;;;;22.38;66.19;93989.59;5062581;28;20017;-78
2023/07/04 06:36:08;;;;;;;14.73;5.53;;;;;;;22.40;66.17;93997.38;5061100;28;20055;-86
2023/07/04 06:38:34;;;;;;;14.63;5.60;;;;;;;22.28;66.62;94000.44;5061598;28;20029;-86
2023/07/04 06:41:05;;;;;;;13.13;5.57;;;;;;;22.29;67.00;93996.56;5061156;28;20025;-87
2023/07/04 06:43:32;;;;;;;13.27;5.95;;;;;;;22.42;65.95;93992.34;5062680;28;20096;-87
2023/07/04 06:45:58;;;;;;;12.90;5.88;;;;;;;22.51;65.02;93997.38;5061052;28;20029;-85
2023/07/04 06:48:25;;;;;;;15.50;5.43;;;;;;;22.54;63.73;94008.25;5062471;28;20148;-86
2023/07/04 06:51:20;;;;;;;12.80;4.97;;;;;;;22.54;63.60;94002.06;5062344;28;20072;-87
2023/07/04 06:53:46;;;;;;;11.80;5.47;;;;;;;22.53;64.23;94003.22;5056907;28;20136;-83
2023/07/04 06:56:17;;;;;;;19.27;5.55;;;;;;;22.47;64.15;94000.13;5060980;28;20032;-91
2023/07/04 06:58:54;;;;;;;12.70;5.55;;;;;;;22.46;65.95;94003.97;5061008;28;20287;-91
2023/07/04 07:01:32;;;;;;;15.20;5.65;;;;;;;22.42;65.47;94005.91;5063913;28;20294;-92
2023/07/04 07:03:59;;;;;;;7.68;5.13;;;;;;;22.45;65.70;93999.72;5067032;28;20025;-91
2023/07/04 07:06:25;;;;;;;9.13;5.45;;;;;;;22.43;64.32;93997.38;5066962;28;20017;-92
2023/07/04 07:08:51;;;;;;;9.82;4.80;;;;;;;22.43;63.69;93999.34;5065758;28;20028;-91
2023/07/04 07:11:20;;;;;;;12.95;4.85;;;;;;;22.39;63.90;93999.31;5065847;28;20012;-92
2023/07/04 07:13:48;;;;;;;12.90;4.93;;;;;;;22.47;64.41;93991.16;5065912;28;20023;-93
2023/07/04 07:16:20;;;;;;;10.88;5.20;;;;;;;22.46;63.34;94006.69;5065293;28;20071;-94
2023/07/04 07:18:46;;;;;;;10.60;4.82;;;;;;;22.54;62.70;93991.97;5065210;28;20093;-92
2023/07/04 07:21:15;;;;;;;10.25;4.90;;;;;;;22.57;64.47;93991.22;5064681;28;20100;-92
2023/07/04 07:23:41;;;;;;;10.65;5.97;;;;;;;22.63;63.13;94005.97;5065382;28;20047;-93
2023/07/04 07:26:09;;;;;;;16.45;5.82;;;;;;;22.72;63.06;93997.41;5065061;28;20322;-92
2023/07/04 07:28:41;;;;;;;11.70;5.63;;;;;;;22.81;61.80;93999.75;5065712;28;20017;-94
2023/07/04 07:31:22;;;;;;;12.43;5.05;;;;;;;22.83;61.85;94000.13;5065712;28;20140;-93
2023/07/04 07:33:49;;;;;;;12.15;4.93;;;;;;;22.97;61.88;94002.09;5066270;28;20021;-93
2023/07/04 07:36:26;;;;;;;9.88;4.50;;;;;;;23.17;61.32;94006.00;5065824;28;20028;-94
2023/07/04 07:38:53;;;;;;;10.02;4.60;;;;;;;23.28;61.89;94010.63;5067105;28;20067;-93
2023/07/04 07:41:21;;;;;;;14.25;6.05;;;;;;;23.37;60.87;94000.91;5066468;28;20025;-93
2023/07/04 07:43:47;;;;;;;17.80;6.47;;;;;;;23.39;60.39;94006.75;5066608;28;20135;-92
2023/07/04 07:46:16;;;;;;;11.40;6.47;;;;;;;23.47;60.96;94004.00;5065773;28;20029;-92
2023/07/04 07:48:42;;;;;;;13.18;6.43;;;;;;;23.52;60.55;94009.06;5066650;28;20051;-92
2023/07/04 07:51:11;;;;;;;10.27;5.85;;;;;;;23.69;60.90;94010.16;5066096;28;20037;-92
2023/07/04 07:53:38;;;;;;;12.60;6.18;;;;;;;23.86;60.09;94006.66;5066189;28;20096;-92
2023/07/04 07:56:05;;;;;;;16.90;5.32;;;;;;;24.05;59.56;94010.84;5066902;28;20078;-92
2023/07/04 07:58:32;;;;;;;10.80;6.28;;;;;;;24.20;58.78;94008.84;5067622;28;20074;-91
2023/07/04 08:00:57;;;;;;;12.93;6.78;;;;;;;24.21;57.19;94011.16;5067890;28;20214;-91
2023/07/04 08:03:23;;;;;;;11.82;6.57;;;;;;;24.25;57.34;94011.16;5068016;28;20025;-92
2023/07/04 08:05:48;;;;;;;16.73;5.72;;;;;;;24.26;58.58;94006.47;5067898;28;20331;-92
2023/07/04 08:08:14;;;;;;;14.07;5.93;;;;;;;24.30;57.89;94018.13;5068051;28;20251;-92
2023/07/04 08:10:42;;;;;;;20.60;5.90;;;;;;;24.43;57.18;94005.63;5068757;28;20043;-93
2023/07/04 08:13:09;;;;;;;14.73;6.13;;;;;;;24.53;56.78;94012.22;5067279;28;20205;-92
2023/07/04 08:15:34;;;;;;;12.75;6.65;;;;;;;24.54;56.75;94011.81;5067999;28;20028;-92
2023/07/04 08:18:08;;;;;;;11.13;6.28;;;;;;;24.66;56.30;94007.84;5069478;28;20029;-92
2023/07/04 08:20:34;;;;;;;13.05;6.05;;;;;;;24.69;56.59;94003.53;5068429;28;20029;-92
2023/07/04 08:23:00;;;;;;;9.45;5.60;;;;;;;24.78;56.10;94009.31;5068436;28;21040;-91
2023/07/04 08:25:26;;;;;;;10.07;4.72;;;;;;;24.93;56.05;94001.81;5069214;28;20107;-92
2023/07/04 08:27:52;;;;;;;22.10;6.03;;;;;;;25.09;55.20;94009.47;5068709;28;20021;-92
2023/07/04 08:30:17;;;;;;;17.23;5.95;;;;;;;25.10;54.10;94009.09;5065878;28;20091;-93
2023/07/04 08:32:43;;;;;;;12.73;6.20;;;;;;;25.19;53.93;94003.16;5064898;28;20135;-93
2023/07/04 08:35:08;;;;;;;15.07;6.50;;;;;;;25.07;54.24;93996.25;5066092;28;20027;-92
2023/07/04 08:37:34;;;;;;;13.35;6.50;;;;;;;24.99;54.80;93990.09;5066430;28;20020;-93
2023/07/04 08:40:00;;;;;;;12.15;5.90;;;;;;;24.98;55.16;93999.44;5065189;28;20031;-92
2023/07/04 08:42:29;;;;;;;17.75;6.38;;;;;;;25.01;56.03;93990.47;5064880;28;20025;-91
2023/07/04 08:44:56;;;;;;;14.65;6.35;;;;;;;25.12;56.06;93995.06;5065063;28;20027;-92
2023/07/04 08:47:26;;;;;;;14.13;6.75;;;;;;;25.17;54.75;94000.81;5064919;28;20031;-93
2023/07/04 08:50:15;;;;;;;11.80;5.20;;;;;;;25.32;55.83;93993.34;5064608;28;20326;-92
2023/07/04 08:52:54;;;;;;;14.93;6.05;;;;;;;25.52;56.09;93992.75;5064704;28;20033;-93
2023/07/04 08:55:22;;;;;;;15.48;6.47;;;;;;;25.68;55.26;93986.72;5065693;28;20029;-92
2023/07/04 08:57:57;;;;;;;9.80;5.70;;;;;;;25.73;53.86;93989.78;5065743;28;20032;-92
2023/07/04 09:00:34;;;;;;;13.00;6.13;;;;;;;25.79;52.63;93993.63;5066128;28;20039;-92
2023/07/04 09:03:42;;;;;;;11.40;5.80;;;;;;;25.97;52.35;93995.41;5066801;28;20025;-92
2023/07/04 09:06:28;;;;;;;10.63;5.63;;;;;;;26.04;50.80;93983.63;5065854;28;20025;-92
2023/07/04 09:09:15;;;;;;;15.38;6.28;;;;;;;26.01;52.11;93983.25;5066771;28;20029;-92
2023/07/04 09:11:41;;;;;;;11.98;5.95;;;;;;;26.07;52.53;93985.53;5066937;28;20020;-92
2023/07/04 09:14:16;;;;;;;13.85;5.82;;;;;;;26.14;51.42;93978.03;5066967;28;20024;-93
2023/07/04 09:16:47;;;;;;;18.85;6.97;;;;;;;26.20;52.08;93989.28;5066766;28;20031;-93
2023/07/04 09:19:18;;;;;;;16.15;6.22;;;;;;;26.28;50.31;93970.84;5066423;28;20032;-93
2023/07/04 09:21:44;;;;;;;9.90;6.20;;;;;;;26.29;50.47;93984.06;5066725;28;20043;-92
2023/07/04 09:24:10;;;;;;;13.63;6.53;;;;;;;26.30;50.34;93982.13;5066166;28;20025;-92
2023/07/04 09:26:55;;;;;;;10.55;6.28;;;;;;;26.29;50.43;93980.56;5066407;28;20017;-92
2023/07/04 09:29:23;;;;;;;14.73;5.85;;;;;;;26.33;50.14;93978.56;5066561;28;20025;-92
2023/07/04 09:31:58;;;;;;;17.15;6.45;;;;;;;26.35;51.17;93971.50;5066236;28;20072;-92
2023/07/04 09:34:32;;;;;;;14.55;6.05;;;;;;;26.42;51.72;93973.38;5066136;28;20219;-92
2023/07/04 09:37:03;;;;;;;17.02;6.15;;;;;;;26.59;50.20;93974.31;5066000;28;20025;-93
2023/07/04 09:39:50;;;;;;;12.88;6.22;;;;;;;26.68;50.12;93966.38;5066960;28;20067;-92
2023/07/04 09:42:18;;;;;;;16.38;6.65;;;;;;;26.81;50.68;93972.06;5066304;28;20025;-92
2023/07/04 09:44:45;;;;;;;18.83;6.10;;;;;;;26.92;49.93;93964.44;5066125;28;20040;-93
2023/07/04 09:47:25;;;;;;;16.42;6.85;;;;;;;26.90;50.29;93963.31;5066084;28;20029;-93
2023/07/04 09:50:13;;;;;;;10.88;6.30;;;;;;;27.12;48.68;93971.94;5066236;28;20021;-92
2023/07/04 09:52:40;;;;;;;12.15;5.78;;;;;;;27.09;47.55;93964.56;5066712;28;20041;-93
2023/07/04 09:55:23;;;;;;;10.98;6.05;;;;;;;27.02;48.10;93962.72;5071284;28;20049;-93
2023/07/04 09:57:48;;;;;;;20.25;5.95;;;;;;;26.99;48.93;93956.13;5070389;28;20016;-93
2023/07/04 10:00:19;;;;;;;13.20;6.18;;;;;;;26.90;49.20;93953.13;5071242;28;20028;-93
2023/07/04 10:02:46;;;;;;;17.90;7.28;;;;;;;27.05;49.19;93953.69;5071243;28;20031;-88
2023/07/04 10:05:31;;;;;;;11.27;6.30;;;;;;;27.15;48.48;93958.22;5071639;28;20017;-93
2023/07/04 10:08:11;;;;;;;15.63;6.55;;;;;;;27.17;47.78;93961.31;5071890;28;20033;-92
2023/07/04 10:10:54;;;;;;;15.60;6.65;;;;;;;27.25;48.90;93953.75;5072369;28;20017;-93
2023/07/04 10:13:23;;;;;;;16.58;6.10;;;;;;;27.38;48.16;93949.22;5071681;28;20044;-92
2023/07/04 10:15:50;;;;;;;12.85;6.78;;;;;;;27.51;47.00;93948.63;5072740;28;20021;-90
2023/07/04 10:18:32;;;;;;;14.00;6.10;;;;;;;27.59;47.86;93948.06;5072299;28;20051;-93
2023/07/04 10:21:00;;;;;;;10.45;6.40;;;;;;;27.77;45.35;93946.94;5073289;28;20051;-93
2023/07/04 10:23:28;;;;;;;11.13;5.88;;;;;;;27.89;45.67;93943.59;5073517;28;20020;-90
2023/07/04 10:25:57;;;;;;;8.77;6.05;;;;;;;27.88;46.60;93939.31;5076107;28;20048;-91
2023/07/04 10:28:26;;;;;;;11.20;5.82;;;;;;;28.02;46.01;93940.97;5075808;28;20028;-92
2023/07/04 10:30:56;;;;;;;13.73;6.68;;;;;;;28.06;44.08;93941.69;5075036;28;20028;-92
2023/07/04 10:33:34;;;;;;;9.07;5.85;;;;;;;28.13;43.87;93940.75;5075216;28;20088;-93
2023/07/04 10:36:00;;;;;;;11.85;5.90;;;;;;;27.93;44.21;93938.06;5075923;28;20023;-93
2023/07/04 10:38:40;;;;;;;15.02;5.32;;;;;;;28.07;44.34;93942.44;5077912;28;20016;-90
2023/07/04 10:41:16;;;;;;;11.05;6.05;;;;;;;28.15;45.20;93935.63;5078165;28;20033;-91
2023/07/04 10:43:47;;;;;;;10.70;5.80;;;;;;;28.37;45.96;93935.94;5077028;28;20021;-92
2023/07/04 10:46:20;;;;;;;9.77;5.63;;;;;;;28.54;43.92;93932.06;5076590;28;20025;-91
2023/07/04 10:48:51;;;;;;;10.55;4.78;;;;;;;28.67;43.25;93934.88;5077408;28;20013;-92
2023/07/04 10:51:25;;;;;;;8.63;5.53;;;;;;;28.92;42.61;93934.31;5077282;28;20041;-92
2023/07/04 10:53:50;;;;;;;10.27;5.28;;;;;;;29.15;42.91;93935.34;5076860;28;20040;-92
2023/07/04 10:56:32;;;;;;;8.75;5.70;;;;;;;29.16;41.80;93928.63;5076624;28;20036;-91
2023/07/04 10:59:10;;;;;;;6.55;4.95;;;;;;;29.34;43.01;93926.19;5074217;28;20031;-92
2023/07/04 11:01:46;;;;;;;10.65;6.15;;;;;;;29.61;40.83;93925.09;5072139;28;20017;-92
2023/07/04 11:04:21;;;;;;;12.88;5.78;;;;;;;29.67;40.35;93917.88;5072379;28;20021;-92
2023/07/04 11:07:03;;;;;;;12.00;5.80;;;;;;;29.82;40.56;93926.53;5073212;28;20021;-91
2023/07/04 11:09:34;;;;;;;9.70;6.00;;;;;;;29.74;39.62;93912.22;5073286;28;20226;-92
2023/07/04 11:12:04;;;;;;;9.15;5.72;;;;;;;29.68;42.65;93907.69;5076202;28;20028;-93
2023/07/04 11:14:32;;;;;;;12.02;5.07;;;;;;;29.61;42.23;93914.13;5074292;28;20043;-92
2023/07/04 11:17:03;;;;;;;10.80;5.40;;;;;;;29.34;40.18;93908.97;5071301;28;20017;-93
2023/07/04 11:19:32;;;;;;;9.82;5.38;;;;;;;29.28;39.78;93911.47;5070810;28;20021;-92
2023/07/04 11:22:01;;;;;;;8.23;5.35;;;;;;;29.32;41.13;93901.16;5071054;28;20025;-91
2023/07/04 11:24:36;;;;;;;13.30;5.85;;;;;;;29.35;40.18;93903.06;5073740;28;20024;-92
2023/07/04 11:27:09;;;;;;;12.98;5.70;;;;;;;29.44;42.22;93890.69;5071649;28;20097;-92
2023/07/04 11:30:05;;;;;;;17.77;5.97;;;;;;;29.43;40.71;93900.09;5071812;28;20025;-91
2023/07/04 11:32:37;;;;;;;13.40;5.38;;;;;;;29.45;42.96;93886.72;5067101;28;20331;-92
2023/07/04 11:35:13;;;;;;;9.77;5.03;;;;;;;29.48;42.13;93892.13;5071456;28;20029;-92
2023/07/04 11:38:01;;;;;;;15.55;5.60;;;;;;;29.52;41.20;93886.53;5070549;28;20044;-92
2023/07/04 11:40:31;;;;;;;8.07;5.40;;;;;;;29.55;42.21;93883.69;5070467;28;20035;-92